sensor_id;sensor_type;location;lat;lon;timestamp;pressure;altitude;pressure_sealevel;temperature;humidity
41312;BME280;27061;41.648;24.568;2023-07-20T00:00:07;85972.28;;;21.34;49.76
41312;BME280;27061;41.648;24.568;2023-07-20T00:02:40;85994.44;;;21.42;50.70
41312;BME280;27061;41.648;24.568;2023-07-20T00:05:07;85985.09;;;21.31;50.44
41312;BME280;27061;41.648;24.568;2023-07-20T00:07:34;86002.38;;;21.52;50.26
41312;BME280;27061;41.648;24.568;2023-07-20T00:10:01;85993.84;;;21.54;50.46
41312;BME280;27061;41.648;24.568;2023-07-20T00:12:28;85996.97;;;21.48;50.95
41312;BME280;27061;41.648;24.568;2023-07-20T00:14:55;85994.63;;;21.38;51.59
41312;BME280;27061;41.648;24.568;2023-07-20T00:17:22;85993.38;;;21.35;51.35
41312;BME280;27061;41.648;24.568;2023-07-20T00:19:49;85996.19;;;21.35;51.06
41312;BME280;27061;41.648;24.568;2023-07-20T00:22:16;86017.91;;;21.51;51.59
41312;BME280;27061;41.648;24.568;2023-07-20T00:24:43;86022.41;;;21.46;51.64
41312;BME280;27061;41.648;24.568;2023-07-20T00:27:10;86002.78;;;21.44;51.48
41312;BME280;27061;41.648;24.568;2023-07-20T00:29:37;85974.25;;;21.37;51.66
41312;BME280;27061;41.648;24.568;2023-07-20T00:32:05;85968.13;;;21.33;51.48
41312;BME280;27061;41.648;24.568;2023-07-20T00:34:33;85965.53;;;21.29;51.65
41312;BME280;27061;41.648;24.568;2023-07-20T00:37:00;85981.31;;;21.51;51.47
41312;BME280;27061;41.648;24.568;2023-07-20T00:39:27;85987.25;;;21.45;51.81
41312;BME280;27061;41.648;24.568;2023-07-20T00:41:54;85954.03;;;21.33;51.51
41312;BME280;27061;41.648;24.568;2023-07-20T00:44:21;85967.53;;;21.45;51.70
41312;BME280;27061;41.648;24.568;2023-07-20T00:46:48;85973.84;;;21.45;51.71
41312;BME280;27061;41.648;24.568;2023-07-20T00:49:16;85969.66;;;21.44;52.31
41312;BME280;27061;41.648;24.568;2023-07-20T00:51:43;85968.91;;;21.31;52.32
41312;BME280;27061;41.648;24.568;2023-07-20T00:54:11;85995.09;;;21.42;52.61
41312;BME280;27061;41.648;24.568;2023-07-20T00:56:38;85983.56;;;21.34;52.39
41312;BME280;27061;41.648;24.568;2023-07-20T00:59:05;85982.09;;;21.35;52.80
41312;BME280;27061;41.648;24.568;2023-07-20T01:01:34;85981.13;;;21.40;54.26
41312;BME280;27061;41.648;24.568;2023-07-20T01:04:01;85980.84;;;21.32;55.09
41312;BME280;27061;41.648;24.568;2023-07-20T01:06:55;85988.03;;;21.29;54.37
41312;BME280;27061;41.648;24.568;2023-07-20T01:09:29;85986.19;;;21.23;53.86
41312;BME280;27061;41.648;24.568;2023-07-20T01:14:26;85969.28;;;21.38;53.34
41312;BME280;27061;41.648;24.568;2023-07-20T01:16:53;85941.31;;;21.34;53.84
41312;BME280;27061;41.648;24.568;2023-07-20T01:19:20;85942.00;;;21.34;53.83
41312;BME280;27061;41.648;24.568;2023-07-20T01:33:13;85952.69;;;21.32;55.21
41312;BME280;27061;41.648;24.568;2023-07-20T01:35:43;85963.94;;;21.32;55.43
41312;BME280;27061;41.648;24.568;2023-07-20T01:38:13;85941.13;;;21.23;54.99
41312;BME280;27061;41.648;24.568;2023-07-20T01:40:40;85949.97;;;21.15;56.33
41312;BME280;27061;41.648;24.568;2023-07-20T01:43:08;85950.53;;;21.32;55.73
41312;BME280;27061;41.648;24.568;2023-07-20T01:45:35;85902.31;;;20.81;55.46
41312;BME280;27061;41.648;24.568;2023-07-20T01:48:02;85950.75;;;21.28;55.23
41312;BME280;27061;41.648;24.568;2023-07-20T01:50:30;85965.41;;;21.31;55.39
41312;BME280;27061;41.648;24.568;2023-07-20T01:52:58;85957.53;;;21.33;56.27
41312;BME280;27061;41.648;24.568;2023-07-20T01:55:25;85928.63;;;21.05;56.19
41312;BME280;27061;41.648;24.568;2023-07-20T01:57:53;85959.22;;;21.28;56.17
41312;BME280;27061;41.648;24.568;2023-07-20T02:00:20;85948.72;;;21.27;55.96
41312;BME280;27061;41.648;24.568;2023-07-20T02:02:50;85924.53;;;21.02;55.78
41312;BME280;27061;41.648;24.568;2023-07-20T02:05:18;85954.44;;;21.25;55.99
41312;BME280;27061;41.648;24.568;2023-07-20T02:07:45;85960.75;;;21.25;56.21
41312;BME280;27061;41.648;24.568;2023-07-20T02:10:16;85961.44;;;21.26;56.01
41312;BME280;27061;41.648;24.568;2023-07-20T02:12:43;85955.03;;;21.27;55.67
41312;BME280;27061;41.648;24.568;2023-07-20T02:15:11;85968.22;;;21.31;55.60
41312;BME280;27061;41.648;24.568;2023-07-20T02:17:40;85961.44;;;21.26;56.04
41312;BME280;27061;41.648;24.568;2023-07-20T02:20:08;85962.31;;;21.22;55.57
41312;BME280;27061;41.648;24.568;2023-07-20T02:22:37;85935.69;;;21.04;55.39
41312;BME280;27061;41.648;24.568;2023-07-20T02:25:05;85968.22;;;21.16;55.77
41312;BME280;27061;41.648;24.568;2023-07-20T02:27:34;85973.66;;;21.20;55.82
41312;BME280;27061;41.648;24.568;2023-07-20T02:30:01;85962.97;;;21.23;55.77
41312;BME280;27061;41.648;24.568;2023-07-20T02:32:30;85946.19;;;21.06;55.77
41312;BME280;27061;41.648;24.568;2023-07-20T02:34:58;85936.66;;;20.99;55.90
41312;BME280;27061;41.648;24.568;2023-07-20T02:37:26;85953.94;;;21.05;55.88
41312;BME280;27061;41.648;24.568;2023-07-20T02:39:53;85952.78;;;21.15;55.95
41312;BME280;27061;41.648;24.568;2023-07-20T02:42:20;85949.47;;;21.10;56.28
41312;BME280;27061;41.648;24.568;2023-07-20T02:44:49;85951.13;;;21.05;56.63
41312;BME280;27061;41.648;24.568;2023-07-20T02:47:16;85936.56;;;20.86;57.43
41312;BME280;27061;41.648;24.568;2023-07-20T02:49:43;85939.59;;;20.97;56.88
41312;BME280;27061;41.648;24.568;2023-07-20T02:52:11;85935.97;;;20.98;56.99
41312;BME280;27061;41.648;24.568;2023-07-20T02:54:38;85934.72;;;20.95;56.76
41312;BME280;27061;41.648;24.568;2023-07-20T02:57:05;85927.16;;;20.92;57.13
41312;BME280;27061;41.648;24.568;2023-07-20T02:59:32;85915.31;;;20.89;57.03
41312;BME280;27061;41.648;24.568;2023-07-20T03:01:59;85940.25;;;20.97;57.39
41312;BME280;27061;41.648;24.568;2023-07-20T03:04:26;85926.88;;;20.83;57.57
41312;BME280;27061;41.648;24.568;2023-07-20T03:06:54;85940.53;;;20.91;57.17
41312;BME280;27061;41.648;24.568;2023-07-20T03:09:21;85913.47;;;20.69;57.56
41312;BME280;27061;41.648;24.568;2023-07-20T03:11:49;85942.66;;;20.91;57.17
41312;BME280;27061;41.648;24.568;2023-07-20T03:14:17;85906.19;;;20.59;57.09
41312;BME280;27061;41.648;24.568;2023-07-20T03:16:44;85950.53;;;20.88;57.09
41312;BME280;27061;41.648;24.568;2023-07-20T03:19:12;85924.13;;;20.81;56.89
41312;BME280;27061;41.648;24.568;2023-07-20T03:21:40;85950.25;;;20.94;57.10
41312;BME280;27061;41.648;24.568;2023-07-20T03:24:08;85930.53;;;20.65;57.85
41312;BME280;27061;41.648;24.568;2023-07-20T03:26:36;85963.34;;;20.85;57.93
41312;BME280;27061;41.648;24.568;2023-07-20T03:29:04;85952.19;;;20.83;58.34
41312;BME280;27061;41.648;24.568;2023-07-20T03:31:32;85955.19;;;20.79;58.41
41312;BME280;27061;41.648;24.568;2023-07-20T03:33:59;85958.28;;;20.73;58.69
41312;BME280;27061;41.648;24.568;2023-07-20T03:36:26;85963.81;;;20.75;58.65
41312;BME280;27061;41.648;24.568;2023-07-20T03:38:53;85965.56;;;20.82;57.99
41312;BME280;27061;41.648;24.568;2023-07-20T03:41:20;85965.06;;;20.78;58.54
41312;BME280;27061;41.648;24.568;2023-07-20T03:43:48;85963.31;;;20.70;59.49
41312;BME280;27061;41.648;24.568;2023-07-20T03:46:15;85961.88;;;20.71;59.31
41312;BME280;27061;41.648;24.568;2023-07-20T03:48:42;85957.22;;;20.66;60.27
41312;BME280;27061;41.648;24.568;2023-07-20T03:51:10;85948.06;;;20.51;60.76
41312;BME280;27061;41.648;24.568;2023-07-20T03:53:37;85935.63;;;20.45;61.08
41312;BME280;27061;41.648;24.568;2023-07-20T03:56:04;85926.03;;;20.40;61.16
41312;BME280;27061;41.648;24.568;2023-07-20T03:58:31;85951.84;;;20.60;61.60
41312;BME280;27061;41.648;24.568;2023-07-20T04:00:58;85931.56;;;20.42;62.76
41312;BME280;27061;41.648;24.568;2023-07-20T04:03:25;85944.19;;;20.58;61.91
41312;BME280;27061;41.648;24.568;2023-07-20T04:05:54;85953.13;;;20.63;62.02
41312;BME280;27061;41.648;24.568;2023-07-20T04:08:24;85932.00;;;20.64;61.22
41312;BME280;27061;41.648;24.568;2023-07-20T04:10:52;85915.09;;;20.49;61.84
41312;BME280;27061;41.648;24.568;2023-07-20T04:13:19;85934.72;;;20.66;62.81
41312;BME280;27061;41.648;24.568;2023-07-20T04:15:46;85947.22;;;20.69;62.64
41312;BME280;27061;41.648;24.568;2023-07-20T04:18:13;85939.38;;;20.71;62.70
41312;BME280;27061;41.648;24.568;2023-07-20T04:20:40;85948.19;;;20.78;62.94
41312;BME280;27061;41.648;24.568;2023-07-20T04:23:07;85909.75;;;20.58;63.09
41312;BME280;27061;41.648;24.568;2023-07-20T04:25:35;85945.09;;;20.84;63.63
41312;BME280;27061;41.648;24.568;2023-07-20T04:28:08;85942.28;;;20.84;63.70
41312;BME280;27061;41.648;24.568;2023-07-20T04:30:39;85932.66;;;20.79;65.33
41312;BME280;27061;41.648;24.568;2023-07-20T04:33:09;85933.56;;;20.75;64.69
41312;BME280;27061;41.648;24.568;2023-07-20T04:35:52;85906.09;;;20.61;64.36
41312;BME280;27061;41.648;24.568;2023-07-20T04:38:29;85942.75;;;20.89;64.10
41312;BME280;27061;41.648;24.568;2023-07-20T04:41:16;85938.91;;;20.96;63.40
41312;BME280;27061;41.648;24.568;2023-07-20T04:43:47;85910.47;;;20.73;64.10
41312;BME280;27061;41.648;24.568;2023-07-20T04:46:19;85918.34;;;20.85;63.64
41312;BME280;27061;41.648;24.568;2023-07-20T04:48:49;85922.09;;;20.94;64.83
41312;BME280;27061;41.648;24.568;2023-07-20T04:51:16;85931.44;;;21.05;66.18
41312;BME280;27061;41.648;24.568;2023-07-20T04:53:49;85928.78;;;21.01;65.02
41312;BME280;27061;41.648;24.568;2023-07-20T04:56:17;85951.94;;;21.18;64.71
41312;BME280;27061;41.648;24.568;2023-07-20T04:58:44;85907.53;;;20.90;65.66
41312;BME280;27061;41.648;24.568;2023-07-20T05:01:12;85950.34;;;21.22;64.94
41312;BME280;27061;41.648;24.568;2023-07-20T05:03:40;85950.19;;;21.26;64.00
41312;BME280;27061;41.648;24.568;2023-07-20T05:06:09;85944.22;;;21.32;63.01
41312;BME280;27061;41.648;24.568;2023-07-20T05:08:36;85947.53;;;21.36;62.76
41312;BME280;27061;41.648;24.568;2023-07-20T05:11:05;85875.81;;;20.91;62.75
41312;BME280;27061;41.648;24.568;2023-07-20T05:13:32;85955.97;;;21.51;62.37
41312;BME280;27061;41.648;24.568;2023-07-20T05:15:59;85926.97;;;21.40;61.79
41312;BME280;27061;41.648;24.568;2023-07-20T05:18:27;85939.66;;;21.53;63.14
41312;BME280;27061;41.648;24.568;2023-07-20T05:20:54;85943.28;;;21.79;62.51
41312;BME280;27061;41.648;24.568;2023-07-20T05:23:22;85929.81;;;21.67;63.54
41312;BME280;27061;41.648;24.568;2023-07-20T05:25:56;85941.31;;;21.90;61.86
41312;BME280;27061;41.648;24.568;2023-07-20T05:28:24;85932.75;;;21.92;62.79
41312;BME280;27061;41.648;24.568;2023-07-20T05:30:51;85916.03;;;21.88;63.18
41312;BME280;27061;41.648;24.568;2023-07-20T05:33:19;85935.09;;;22.15;62.58
41312;BME280;27061;41.648;24.568;2023-07-20T05:35:47;85938.06;;;22.26;62.33
41312;BME280;27061;41.648;24.568;2023-07-20T05:38:14;85854.16;;;21.86;63.69
41312;BME280;27061;41.648;24.568;2023-07-20T05:40:42;85924.50;;;22.43;63.40
41312;BME280;27061;41.648;24.568;2023-07-20T05:43:11;85928.25;;;22.52;62.71
41312;BME280;27061;41.648;24.568;2023-07-20T05:45:43;85923.41;;;22.63;62.44
41312;BME280;27061;41.648;24.568;2023-07-20T05:48:10;85927.16;;;22.73;62.49
41312;BME280;27061;41.648;24.568;2023-07-20T05:50:44;85907.28;;;22.75;62.79
41312;BME280;27061;41.648;24.568;2023-07-20T05:53:11;85915.34;;;22.83;62.26
41312;BME280;27061;41.648;24.568;2023-07-20T05:55:41;85910.47;;;22.94;61.45
41312;BME280;27061;41.648;24.568;2023-07-20T05:58:09;85897.94;;;23.04;59.99
41312;BME280;27061;41.648;24.568;2023-07-20T06:00:36;85884.72;;;23.00;59.68
41312;BME280;27061;41.648;24.568;2023-07-20T06:03:03;85928.78;;;23.46;59.05
41312;BME280;27061;41.648;24.568;2023-07-20T06:05:31;85904.25;;;23.42;58.72
41312;BME280;27061;41.648;24.568;2023-07-20T06:07:58;85909.69;;;23.59;58.02
41312;BME280;27061;41.648;24.568;2023-07-20T06:10:27;85868.91;;;23.30;57.17
41312;BME280;27061;41.648;24.568;2023-07-20T06:12:54;85911.78;;;23.84;56.70
41312;BME280;27061;41.648;24.568;2023-07-20T06:15:28;85906.06;;;23.96;55.97
41312;BME280;27061;41.648;24.568;2023-07-20T06:17:55;85912.59;;;24.05;56.14
41312;BME280;27061;41.648;24.568;2023-07-20T06:20:25;85897.47;;;23.98;57.23
41312;BME280;27061;41.648;24.568;2023-07-20T06:22:53;85889.88;;;24.07;56.22
41312;BME280;27061;41.648;24.568;2023-07-20T06:25:20;85905.03;;;24.38;55.86
41312;BME280;27061;41.648;24.568;2023-07-20T06:27:49;85908.19;;;24.44;55.98
41312;BME280;27061;41.648;24.568;2023-07-20T06:30:18;85917.41;;;24.56;56.92
41312;BME280;27061;41.648;24.568;2023-07-20T06:32:45;85899.88;;;24.53;56.48
41312;BME280;27061;41.648;24.568;2023-07-20T06:35:13;85919.97;;;24.83;54.66
41312;BME280;27061;41.648;24.568;2023-07-20T06:37:40;85890.38;;;24.69;54.46
41312;BME280;27061;41.648;24.568;2023-07-20T06:40:08;85898.88;;;24.93;55.59
41312;BME280;27061;41.648;24.568;2023-07-20T06:42:41;85906.78;;;25.13;54.56
41312;BME280;27061;41.648;24.568;2023-07-20T06:45:11;85898.69;;;25.18;54.98
41312;BME280;27061;41.648;24.568;2023-07-20T06:47:39;85907.38;;;25.37;54.10
41312;BME280;27061;41.648;24.568;2023-07-20T06:50:10;85893.91;;;25.38;54.08
41312;BME280;27061;41.648;24.568;2023-07-20T06:52:43;85904.22;;;25.65;54.41
41312;BME280;27061;41.648;24.568;2023-07-20T06:55:10;85905.06;;;25.74;54.37
41312;BME280;27061;41.648;24.568;2023-07-20T06:57:37;85908.97;;;25.79;54.61
41312;BME280;27061;41.648;24.568;2023-07-20T07:00:06;85898.75;;;25.95;54.74
41312;BME280;27061;41.648;24.568;2023-07-20T07:02:33;85826.56;;;25.49;54.86
41312;BME280;27061;41.648;24.568;2023-07-20T07:05:02;85830.25;;;25.69;54.56
41312;BME280;27061;41.648;24.568;2023-07-20T07:07:46;85880.22;;;26.28;54.45
41312;BME280;27061;41.648;24.568;2023-07-20T07:10:13;85904.66;;;26.54;52.41
41312;BME280;27061;41.648;24.568;2023-07-20T07:12:40;85903.16;;;26.66;53.56
41312;BME280;27061;41.648;24.568;2023-07-20T07:15:08;85863.47;;;26.45;54.00
41312;BME280;27061;41.648;24.568;2023-07-20T07:17:37;85895.94;;;26.88;52.55
41312;BME280;27061;41.648;24.568;2023-07-20T07:20:06;85887.44;;;26.88;51.90
41312;BME280;27061;41.648;24.568;2023-07-20T07:22:40;85872.41;;;26.90;52.15
41312;BME280;27061;41.648;24.568;2023-07-20T07:25:12;85877.25;;;27.02;52.30
41312;BME280;27061;41.648;24.568;2023-07-20T07:27:39;85899.56;;;27.38;51.89
41312;BME280;27061;41.648;24.568;2023-07-20T07:30:07;85893.16;;;27.48;51.83
41312;BME280;27061;41.648;24.568;2023-07-20T07:32:34;85859.00;;;27.29;51.53
41312;BME280;27061;41.648;24.568;2023-07-20T07:35:01;85806.16;;;27.13;49.83
41312;BME280;27061;41.648;24.568;2023-07-20T07:37:28;85890.56;;;27.85;50.99
41312;BME280;27061;41.648;24.568;2023-07-20T07:40:02;85905.06;;;28.00;51.14
41312;BME280;27061;41.648;24.568;2023-07-20T07:42:30;85873.16;;;27.89;50.11
41312;BME280;27061;41.648;24.568;2023-07-20T07:44:57;85896.94;;;28.24;50.63
41312;BME280;27061;41.648;24.568;2023-07-20T07:47:24;85864.03;;;28.16;49.35
41312;BME280;27061;41.648;24.568;2023-07-20T07:49:51;85764.50;;;27.58;49.60
41312;BME280;27061;41.648;24.568;2023-07-20T07:52:18;85896.28;;;28.70;45.27
41312;BME280;27061;41.648;24.568;2023-07-20T07:54:45;85896.09;;;28.72;46.91
41312;BME280;27061;41.648;24.568;2023-07-20T07:57:12;85887.66;;;28.81;47.61
41312;BME280;27061;41.648;24.568;2023-07-20T07:59:40;85861.59;;;28.68;47.40
41312;BME280;27061;41.648;24.568;2023-07-20T08:02:07;85892.41;;;28.93;43.67
41312;BME280;27061;41.648;24.568;2023-07-20T08:04:35;85836.56;;;28.60;45.11
41312;BME280;27061;41.648;24.568;2023-07-20T08:07:03;85852.81;;;28.81;43.79
41312;BME280;27061;41.648;24.568;2023-07-20T08:09:30;85874.13;;;28.90;44.48
41312;BME280;27061;41.648;24.568;2023-07-20T08:11:57;85875.97;;;29.22;46.04
41312;BME280;27061;41.648;24.568;2023-07-20T08:14:25;85862.69;;;29.18;46.02
41312;BME280;27061;41.648;24.568;2023-07-20T08:16:52;85905.78;;;29.51;45.20
41312;BME280;27061;41.648;24.568;2023-07-20T08:19:20;85880.63;;;29.53;42.18
41312;BME280;27061;41.648;24.568;2023-07-20T08:21:47;85897.63;;;29.72;41.06
41312;BME280;27061;41.648;24.568;2023-07-20T08:24:14;85892.16;;;29.88;40.07
41312;BME280;27061;41.648;24.568;2023-07-20T08:26:41;85889.63;;;29.83;44.16
41312;BME280;27061;41.648;24.568;2023-07-20T08:29:08;85888.78;;;29.85;39.34
41312;BME280;27061;41.648;24.568;2023-07-20T08:31:35;85898.88;;;29.93;37.04
41312;BME280;27061;41.648;24.568;2023-07-20T08:34:02;85865.59;;;29.80;37.66
41312;BME280;27061;41.648;24.568;2023-07-20T08:36:49;85895.22;;;30.03;37.71
41312;BME280;27061;41.648;24.568;2023-07-20T08:39:16;85898.28;;;30.18;36.75
41312;BME280;27061;41.648;24.568;2023-07-20T08:41:43;85889.22;;;30.24;40.29
41312;BME280;27061;41.648;24.568;2023-07-20T08:44:11;85871.56;;;30.13;39.77
41312;BME280;27061;41.648;24.568;2023-07-20T08:46:38;85886.53;;;30.39;40.77
41312;BME280;27061;41.648;24.568;2023-07-20T08:49:08;85888.56;;;30.49;39.42
41312;BME280;27061;41.648;24.568;2023-07-20T08:51:36;85890.06;;;30.48;37.46
41312;BME280;27061;41.648;24.568;2023-07-20T08:54:04;85859.66;;;30.19;38.02
41312;BME280;27061;41.648;24.568;2023-07-20T08:56:33;85859.81;;;30.34;39.49
41312;BME280;27061;41.648;24.568;2023-07-20T08:59:01;85877.81;;;30.67;38.60
41312;BME280;27061;41.648;24.568;2023-07-20T09:01:28;85871.75;;;30.80;37.12
41312;BME280;27061;41.648;24.568;2023-07-20T09:03:57;85870.06;;;30.83;37.73
41312;BME280;27061;41.648;24.568;2023-07-20T09:06:27;85883.34;;;30.78;32.57
41312;BME280;27061;41.648;24.568;2023-07-20T09:08:55;85871.22;;;30.86;36.00
41312;BME280;27061;41.648;24.568;2023-07-20T09:11:22;85875.75;;;31.00;34.55
41312;BME280;27061;41.648;24.568;2023-07-20T09:14:05;85871.06;;;31.14;36.06
41312;BME280;27061;41.648;24.568;2023-07-20T09:16:32;85869.19;;;31.19;35.77
41312;BME280;27061;41.648;24.568;2023-07-20T09:19:00;85856.75;;;31.14;34.76
41312;BME280;27061;41.648;24.568;2023-07-20T09:21:30;85854.22;;;31.18;34.10
41312;BME280;27061;41.648;24.568;2023-07-20T09:23:57;85880.34;;;31.47;33.99
41312;BME280;27061;41.648;24.568;2023-07-20T09:26:24;85885.56;;;31.53;32.77
41312;BME280;27061;41.648;24.568;2023-07-20T09:28:54;85874.00;;;31.46;33.69
41312;BME280;27061;41.648;24.568;2023-07-20T09:31:22;85868.47;;;31.36;31.69
41312;BME280;27061;41.648;24.568;2023-07-20T09:33:52;85891.13;;;31.55;33.59
41312;BME280;27061;41.648;24.568;2023-07-20T09:36:22;85878.63;;;31.58;35.34
41312;BME280;27061;41.648;24.568;2023-07-20T09:39:09;85895.63;;;31.69;33.46
41312;BME280;27061;41.648;24.568;2023-07-20T09:41:40;85840.09;;;31.08;33.85
41312;BME280;27061;41.648;24.568;2023-07-20T09:44:15;85891.28;;;31.53;34.05
41312;BME280;27061;41.648;24.568;2023-07-20T09:46:47;85885.56;;;31.53;33.07
41312;BME280;27061;41.648;24.568;2023-07-20T09:49:18;85839.00;;;31.46;34.43
41312;BME280;27061;41.648;24.568;2023-07-20T09:51:48;85823.69;;;31.41;36.17
41312;BME280;27061;41.648;24.568;2023-07-20T09:54:15;85851.34;;;31.68;37.57
41312;BME280;27061;41.648;24.568;2023-07-20T09:56:45;85823.22;;;31.71;34.27
41312;BME280;27061;41.648;24.568;2023-07-20T09:59:13;85818.34;;;31.69;33.25
41312;BME280;27061;41.648;24.568;2023-07-20T10:01:41;85847.19;;;31.91;31.91
41312;BME280;27061;41.648;24.568;2023-07-20T10:04:10;85839.91;;;31.68;34.38
41312;BME280;27061;41.648;24.568;2023-07-20T10:06:42;85859.69;;;31.87;32.13
41312;BME280;27061;41.648;24.568;2023-07-20T10:09:12;85858.63;;;31.99;32.51
41312;BME280;27061;41.648;24.568;2023-07-20T10:11:45;85868.78;;;32.14;35.34
41312;BME280;27061;41.648;24.568;2023-07-20T10:14:28;85858.81;;;32.21;34.54
41312;BME280;27061;41.648;24.568;2023-07-20T10:16:58;85853.34;;;32.34;36.63
41312;BME280;27061;41.648;24.568;2023-07-20T10:19:43;85851.03;;;32.52;36.49
41312;BME280;27061;41.648;24.568;2023-07-20T10:22:23;85817.69;;;32.49;36.34
41312;BME280;27061;41.648;24.568;2023-07-20T10:24:52;85807.69;;;32.56;34.01
41312;BME280;27061;41.648;24.568;2023-07-20T10:27:21;85805.50;;;32.57;33.94
41312;BME280;27061;41.648;24.568;2023-07-20T10:29:48;85820.00;;;32.79;33.51
41312;BME280;27061;41.648;24.568;2023-07-20T10:32:16;85837.41;;;32.92;34.53
41312;BME280;27061;41.648;24.568;2023-07-20T10:34:50;85835.31;;;32.99;34.43
41312;BME280;27061;41.648;24.568;2023-07-20T10:37:53;85839.16;;;33.19;36.04
41312;BME280;27061;41.648;24.568;2023-07-20T10:42:59;85829.53;;;33.38;33.69
41312;BME280;27061;41.648;24.568;2023-07-20T10:45:41;85825.44;;;33.43;32.77
41312;BME280;27061;41.648;24.568;2023-07-20T10:48:19;85820.06;;;33.39;30.79
41312;BME280;27061;41.648;24.568;2023-07-20T10:51:13;85823.22;;;33.29;30.14
41312;BME280;27061;41.648;24.568;2023-07-20T10:53:43;85822.84;;;33.33;33.16
41312;BME280;27061;41.648;24.568;2023-07-20T10:56:20;85819.13;;;33.34;34.10
41312;BME280;27061;41.648;24.568;2023-07-20T10:58:48;85812.13;;;33.40;34.35
41312;BME280;27061;41.648;24.568;2023-07-20T11:01:18;85798.34;;;33.49;35.22
41312;BME280;27061;41.648;24.568;2023-07-20T11:03:50;85805.31;;;33.59;34.68
41312;BME280;27061;41.648;24.568;2023-07-20T11:08:56;85806.38;;;33.86;35.58
41312;BME280;27061;41.648;24.568;2023-07-20T11:11:28;85797.84;;;33.92;30.49
41312;BME280;27061;41.648;24.568;2023-07-20T11:13:56;85803.19;;;33.96;32.68
41312;BME280;27061;41.648;24.568;2023-07-20T11:16:46;85801.56;;;33.91;30.29
41312;BME280;27061;41.648;24.568;2023-07-20T11:19:19;85790.97;;;33.89;31.50
41312;BME280;27061;41.648;24.568;2023-07-20T11:21:54;85791.94;;;33.79;32.70
41312;BME280;27061;41.648;24.568;2023-07-20T11:24:30;85801.19;;;33.95;31.92
41312;BME280;27061;41.648;24.568;2023-07-20T11:26:58;85775.56;;;33.62;31.35
41312;BME280;27061;41.648;24.568;2023-07-20T11:29:25;85768.97;;;33.64;31.98
41312;BME280;27061;41.648;24.568;2023-07-20T11:32:00;85742.78;;;33.37;33.51
41312;BME280;27061;41.648;24.568;2023-07-20T11:34:32;85773.00;;;33.67;31.02
41312;BME280;27061;41.648;24.568;2023-07-20T11:36:59;85762.94;;;33.74;30.55
41312;BME280;27061;41.648;24.568;2023-07-20T11:39:30;85741.81;;;33.63;32.08
41312;BME280;27061;41.648;24.568;2023-07-20T11:41:57;85725.25;;;33.63;32.01
41312;BME280;27061;41.648;24.568;2023-07-20T11:44:26;85756.69;;;33.87;33.34
41312;BME280;27061;41.648;24.568;2023-07-20T11:47:05;85750.59;;;33.76;33.26
41312;BME280;27061;41.648;24.568;2023-07-20T11:49:39;85760.56;;;33.77;31.29
41312;BME280;27061;41.648;24.568;2023-07-20T11:52:08;85752.56;;;33.93;32.67
41312;BME280;27061;41.648;24.568;2023-07-20T11:54:39;85738.75;;;33.65;35.08
41312;BME280;27061;41.648;24.568;2023-07-20T11:57:19;85739.06;;;33.91;32.47
41312;BME280;27061;41.648;24.568;2023-07-20T11:59:57;85746.69;;;34.01;33.55
41312;BME280;27061;41.648;24.568;2023-07-20T12:02:27;85728.06;;;33.57;31.80
41312;BME280;27061;41.648;24.568;2023-07-20T12:04:58;85712.19;;;33.42;33.08
41312;BME280;27061;41.648;24.568;2023-07-20T12:07:27;85709.31;;;33.42;35.15
41312;BME280;27061;41.648;24.568;2023-07-20T12:10:07;85697.72;;;33.51;32.38
41312;BME280;27061;41.648;24.568;2023-07-20T12:12:42;85697.56;;;33.38;32.18
41312;BME280;27061;41.648;24.568;2023-07-20T12:15:22;85719.84;;;33.37;33.51
41312;BME280;27061;41.648;24.568;2023-07-20T12:17:53;85700.16;;;33.18;34.09
41312;BME280;27061;41.648;24.568;2023-07-20T12:20:33;85712.59;;;32.93;35.56
41312;BME280;27061;41.648;24.568;2023-07-20T12:23:08;85726.94;;;32.93;36.00
41312;BME280;27061;41.648;24.568;2023-07-20T12:25:43;85732.88;;;32.91;36.07
41312;BME280;27061;41.648;24.568;2023-07-20T12:28:13;85736.50;;;32.83;36.54
41312;BME280;27061;41.648;24.568;2023-07-20T12:30:41;85750.84;;;32.83;36.69
41312;BME280;27061;41.648;24.568;2023-07-20T12:33:08;85758.03;;;32.66;36.64
41312;BME280;27061;41.648;24.568;2023-07-20T12:35:36;85764.69;;;32.41;37.23
41312;BME280;27061;41.648;24.568;2023-07-20T12:38:03;85764.47;;;32.43;36.79
41312;BME280;27061;41.648;24.568;2023-07-20T12:40:30;85762.63;;;32.24;37.58
41312;BME280;27061;41.648;24.568;2023-07-20T12:42:57;85773.81;;;32.35;40.93
41312;BME280;27061;41.648;24.568;2023-07-20T12:45:25;85748.53;;;32.14;42.67
41312;BME280;27061;41.648;24.568;2023-07-20T12:47:52;85736.41;;;31.89;41.41
41312;BME280;27061;41.648;24.568;2023-07-20T12:50:19;85730.69;;;31.89;41.18
41312;BME280;27061;41.648;24.568;2023-07-20T12:52:46;85778.69;;;32.13;41.12
41312;BME280;27061;41.648;24.568;2023-07-20T12:55:13;85782.56;;;32.18;41.76
41312;BME280;27061;41.648;24.568;2023-07-20T12:57:41;85783.22;;;32.18;41.47
41312;BME280;27061;41.648;24.568;2023-07-20T13:00:10;85757.84;;;32.06;44.85
41312;BME280;27061;41.648;24.568;2023-07-20T13:02:38;85789.09;;;32.16;47.92
41312;BME280;27061;41.648;24.568;2023-07-20T13:05:06;85798.97;;;32.02;50.39
41312;BME280;27061;41.648;24.568;2023-07-20T13:07:35;85763.94;;;32.01;47.90
41312;BME280;27061;41.648;24.568;2023-07-20T13:10:06;85764.16;;;31.99;48.13
41312;BME280;27061;41.648;24.568;2023-07-20T13:12:35;85821.13;;;32.19;50.88
41312;BME280;27061;41.648;24.568;2023-07-20T13:15:04;85781.91;;;31.85;51.02
41312;BME280;27061;41.648;24.568;2023-07-20T13:17:36;85810.00;;;32.15;50.39
41312;BME280;27061;41.648;24.568;2023-07-20T13:20:04;85789.34;;;32.06;52.19